Currently 84°F in Riverside (Orangecrest), California, USA
84°F
94°F / 67°F
5 mph NE
0.00"
Monday, July 6, 2020 7:16 PM PDT

Riverside (Orangecrest), California Weather Summary
Last 36 Hours

Temperature Winds Hourly Humidity Dewpoint
Time Report Norm Report Norm Max Gusts Precip. Rpt. Norm Rpt. Norm Pressure
1Mon 07:16 PM  83.8°F  81°F  5 mph NE  6 mph  12 mph  0.00"  25%  30%  43°F  46°F  29.84"
Mon 07:00 PM  84.8°F  82°F  5 mph SE  6 mph  14 mph  0.00"  23%  29%  42°F  45°F  29.84"
Mon 06:00 PM  88.7°F  85°F  calm  7 mph  none  0.00"  20%  25%  41°F  44°F  29.83"
Mon 05:00 PM  90.7°F  87°F  calm  6 mph  16 mph  0.00"  17%  23%  39°F  44°F  29.85"
Mon 04:00 PM  92.6°F  88°F  6 mph NE  6 mph  16 mph  0.00"  15%  23%  37°F  45°F  29.86"
Mon 03:00 PM  93.4°F  89°F  4 mph NE  6 mph  13 mph  0.00"  13%  22%  33°F  44°F  29.87"
Mon 02:00 PM  92.8°F  88°F  5 mph NE  5 mph  12 mph  0.00"  10%  22%  27°F  43°F  29.88"
2Mon 01:08 PM  94.0°F  87°F  3 mph NE  6 mph  8 mph  ----  8%  24%  23°F  45°F  29.90"
Mon 01:00 PM  93.0°F  86°F  3 mph NE  5 mph  9 mph  0.00"  8%  25%  22°F  45°F  29.90"
Mon 12:00 PM  90.0°F  85°F  2 mph NE  4 mph  10 mph  0.00"  10%  27%  24°F  46°F  29.91"
Mon 11:00 AM  86.8°F  82°F  3 mph NE  3 mph  10 mph  0.00"  11%  32%  25°F  48°F  29.92"
Mon 10:00 AM  83.2°F  79°F  5 mph NE  2 mph  9 mph  0.00"  19%  38%  34°F  51°F  29.92"
Mon 09:00 AM  78.6°F  75°F  2 mph NE  2 mph  9 mph  0.00"  24%  47%  37°F  53°F  29.92"
Mon 08:00 AM  73.6°F  71°F  2 mph NE  1 mph  5 mph  0.00"  35%  56%  44°F  54°F  29.91"
Mon 07:00 AM  69.9°F  67°F  2 mph NE  1 mph  6 mph  0.00"  42%  63%  45°F  54°F  29.90"
3Mon 06:00 AM  67.0°F  66°F  calm  1 mph  4 mph  0.00"  44%  65%  44°F  53°F  29.88"
Mon 05:00 AM  67.5°F  66°F  3 mph NE  1 mph  5 mph  0.00"  44%  64%  44°F  53°F  29.87"
Mon 04:00 AM  68.7°F  66°F  calm  2 mph  4 mph  0.00"  45%  63%  45°F  53°F  29.86"
Mon 03:00 AM  69.0°F  67°F  3 mph NE  2 mph  5 mph  0.00"  45%  61%  46°F  53°F  29.86"
Mon 02:00 AM  70.9°F  68°F  3 mph NE  2 mph  4 mph  0.00"  42%  58%  46°F  52°F  29.87"
Mon 01:00 AM  72.7°F  69°F  calm  2 mph  4 mph  0.00"  40%  57%  46°F  52°F  29.88"
Mon 12:00 AM  74.2°F  70°F  calm  2 mph  5 mph  0.00"  36%  54%  44°F  52°F  29.88"
Sun 11:00 PM  74.2°F  71°F  calm  2 mph  5 mph  0.00"  39%  50%  46°F  51°F  29.89"
Sun 10:00 PM  75.8°F  73°F  1 mph NE  3 mph  11 mph  0.00"  33%  46%  44°F  50°F  29.89"
Sun 09:00 PM  78.9°F  75°F  5 mph NE  4 mph  11 mph  0.00"  22%  41%  36°F  49°F  29.87"
Sun 08:00 PM  81.4°F  78°F  3 mph NE  4 mph  18 mph  0.00"  22%  36%  37°F  48°F  29.87"
Sun 07:00 PM  85.0°F  81°F  6 mph NE  6 mph  17 mph  0.00"  18%  30%  35°F  46°F  29.86"
Sun 06:00 PM  88.6°F  84°F  8 mph NE  6 mph  16 mph  0.00"  12%  26%  28°F  45°F  29.86"
Sun 05:00 PM  90.8°F  87°F  calm  6 mph  15 mph  0.00"  11%  24%  27°F  44°F  29.87"
Sun 04:00 PM  91.7°F  88°F  calm  6 mph  16 mph  0.00"  13%  24%  32°F  45°F  29.88"
Sun 03:00 PM  93.2°F  88°F  7 mph NE  6 mph  13 mph  0.00"  11%  23%  28°F  44°F  29.90"
Sun 02:00 PM  92.9°F  87°F  5 mph NE  5 mph  11 mph  0.00"  8%  23%  22°F  44°F  29.92"
Sun 01:00 PM  90.2°F  86°F  2 mph NE  4 mph  10 mph  0.00"  11%  26%  27°F  46°F  29.94"
Sun 12:00 PM  89.7°F  84°F  calm  4 mph  10 mph  0.00"  16%  28%  35°F  46°F  29.95"
Sun 11:00 AM  86.5°F  81°F  2 mph NE  3 mph  5 mph  0.00"  15%  33%  31°F  49°F  29.96"
Sun 10:00 AM  83.1°F  78°F  calm  2 mph  8 mph  0.00"  18%  40%  34°F  51°F  29.97"
Sun 09:00 AM  80.4°F  74°F  2 mph NE  2 mph  6 mph  0.00"  21%  50%  36°F  53°F  29.98"
Sun 08:00 AM  77.1°F  70°F  calm  1 mph  3 mph  0.00"  29%  59%  41°F  54°F  29.98"

  1. Current weather data. No green row appears if the current weather data is also the high or low for the current day.
  2. High temperature for the current day.
  3. Low temperature for the current day.

The Riverside (Orangecrest), California weather pages are a service of WeatherCurrents.
Copyright ©2020  WeatherCurrents. All rights reserved. - Submit questions and comments - Privacy Policy

This page automatically refreshes every 10 minutes.